createdAt,value
2018-06-08T00:02:16.066Z,69.23
2018-06-08T00:04:44.920Z,69.31
2018-06-08T00:07:14.102Z,68.69
2018-06-08T00:09:43.132Z,69.18
2018-06-08T00:12:12.263Z,69.29
2018-06-08T00:14:41.423Z,69.48
2018-06-08T00:17:10.842Z,69.98
2018-06-08T00:19:40.368Z,69.60
2018-06-08T00:22:09.444Z,69.59
2018-06-08T00:24:39.186Z,69.58
2018-06-08T00:27:07.970Z,69.95
2018-06-08T00:29:37.035Z,70.06
2018-06-08T00:32:06.336Z,70.00
2018-06-08T00:34:35.512Z,69.57
2018-06-08T00:37:05.165Z,70.06
2018-06-08T00:39:34.258Z,69.96
2018-06-08T00:42:03.753Z,69.73
2018-06-08T00:44:32.620Z,69.70
2018-06-08T00:47:01.437Z,70.31
2018-06-08T00:49:30.276Z,69.89
2018-06-08T00:51:59.963Z,70.18
2018-06-08T00:54:28.772Z,70.79
2018-06-08T00:57:05.740Z,71.02
2018-06-08T00:59:35.250Z,70.58
2018-06-08T01:02:04.930Z,71.20
2018-06-08T01:04:34.077Z,70.79
2018-06-08T01:07:02.985Z,70.92
2018-06-08T01:09:31.983Z,70.65
2018-06-08T01:12:01.068Z,70.72
2018-06-08T01:14:33.693Z,71.29
2018-06-08T01:17:03.180Z,70.60
2018-06-08T01:19:34.049Z,70.65
2018-06-08T01:22:03.498Z,71.12
2018-06-08T01:24:33.283Z,70.86
2018-06-08T01:27:02.922Z,71.21
2018-06-08T01:29:32.014Z,71.26
2018-06-08T01:32:01.194Z,70.80
2018-06-08T01:34:30.595Z,71.58
2018-06-08T01:36:59.868Z,71.85
2018-06-08T01:39:28.988Z,71.79
2018-06-08T01:41:58.515Z,71.34
2018-06-08T01:44:27.443Z,71.35
2018-06-08T01:46:56.586Z,71.81
2018-06-08T01:49:25.374Z,71.90
2018-06-08T01:51:54.293Z,71.43
2018-06-08T01:54:23.367Z,71.68
2018-06-08T01:56:52.481Z,71.65
2018-06-08T01:59:21.580Z,71.34
2018-06-08T02:01:50.521Z,71.61
2018-06-08T02:04:19.381Z,71.57
2018-06-08T02:06:48.414Z,71.65
2018-06-08T02:09:17.946Z,71.72
2018-06-08T02:11:47.079Z,71.33
2018-06-08T02:14:15.862Z,71.82
2018-06-08T02:16:45.341Z,71.44
2018-06-08T02:19:14.184Z,71.50
2018-06-08T02:21:42.978Z,71.69
2018-06-08T02:24:12.164Z,71.97
2018-06-08T02:26:41.294Z,72.53
2018-06-08T02:29:10.405Z,72.62
2018-06-08T02:31:39.770Z,72.12
2018-06-08T02:34:08.573Z,72.86
2018-06-08T02:36:37.593Z,72.55
2018-06-08T02:39:08.648Z,72.83
2018-06-08T02:41:37.598Z,73.02
2018-06-08T02:44:06.380Z,73.31
2018-06-08T02:46:35.545Z,73.12
2018-06-08T02:49:04.660Z,73.21
2018-06-08T02:51:33.482Z,73.37
2018-06-08T02:54:02.619Z,72.79
2018-06-08T02:56:31.760Z,73.15
2018-06-08T02:59:01.111Z,72.80
2018-06-08T03:01:29.981Z,72.63
2018-06-08T03:03:58.845Z,72.82
2018-06-08T03:06:28.271Z,73.15
2018-06-08T03:08:57.756Z,73.19
2018-06-08T03:11:26.579Z,72.56
2018-06-08T03:13:55.378Z,72.71
2018-06-08T03:16:24.277Z,72.52
2018-06-08T03:18:53.200Z,72.93
2018-06-08T03:21:22.295Z,72.93
2018-06-08T03:23:51.641Z,72.66
2018-06-08T03:26:20.496Z,72.61
2018-06-08T03:28:49.490Z,72.84
2018-06-08T03:31:18.886Z,72.78
2018-06-08T03:33:47.812Z,72.97
2018-06-08T03:36:17.307Z,73.14
2018-06-08T03:38:46.109Z,73.59
2018-06-08T03:41:15.153Z,73.07
2018-06-08T03:43:44.451Z,73.50
2018-06-08T03:46:13.336Z,73.67
2018-06-08T03:48:42.479Z,73.46
2018-06-08T03:51:11.301Z,73.44
2018-06-08T03:53:40.280Z,73.61
2018-06-08T03:56:09.376Z,74.21
2018-06-08T03:58:38.439Z,74.22
2018-06-08T04:01:07.841Z,74.07
2018-06-08T04:03:37.053Z,74.11
2018-06-08T04:06:05.868Z,73.92
2018-06-08T04:08:35.013Z,74.28
2018-06-08T04:11:04.027Z,74.54
2018-06-08T04:13:32.830Z,74.46
2018-06-08T04:16:02.012Z,74.47
2018-06-08T04:18:31.037Z,74.92
2018-06-08T04:21:00.525Z,74.81
2018-06-08T04:23:29.371Z,75.28
2018-06-08T04:25:58.182Z,75.20
2018-06-08T04:28:27.141Z,75.27
2018-06-08T04:30:56.434Z,75.71
2018-06-08T04:33:25.894Z,75.65
2018-06-08T04:35:55.229Z,76.01
2018-06-08T04:38:25.083Z,76.77
2018-06-08T04:40:54.830Z,76.61
2018-06-08T04:43:24.082Z,76.84
2018-06-08T04:45:52.852Z,76.80
2018-06-08T04:48:22.007Z,76.72
2018-06-08T04:50:50.861Z,77.21
2018-06-08T04:53:19.664Z,76.91
2018-06-08T04:55:49.164Z,77.10
2018-06-08T04:58:17.991Z,77.19
2018-06-08T05:00:47.205Z,76.52
2018-06-08T05:03:16.059Z,77.00
2018-06-08T05:05:45.172Z,77.29
2018-06-08T05:08:14.297Z,77.17
2018-06-08T05:10:43.574Z,76.79
2018-06-08T05:13:12.614Z,76.78
2018-06-08T05:15:42.396Z,76.35
2018-06-08T05:18:11.233Z,76.64
2018-06-08T05:20:40.439Z,76.24
2018-06-08T05:23:09.625Z,75.99
2018-06-08T05:25:38.477Z,75.94
2018-06-08T05:28:07.320Z,75.26
2018-06-08T05:30:36.535Z,75.27
2018-06-08T05:33:05.633Z,74.80
2018-06-08T05:35:34.983Z,74.72
2018-06-08T05:38:04.199Z,74.83
2018-06-08T05:40:33.345Z,74.87
2018-06-08T05:43:02.851Z,74.94
2018-06-08T05:45:32.087Z,74.81
2018-06-08T05:48:00.867Z,74.39
2018-06-08T05:50:29.661Z,73.23
2018-06-08T05:52:58.472Z,73.51
2018-06-08T05:55:27.741Z,73.61
2018-06-08T05:57:56.609Z,72.89
2018-06-08T06:00:25.595Z,72.43
2018-06-08T06:02:54.422Z,72.10
2018-06-08T06:05:23.580Z,72.27
2018-06-08T06:07:53.026Z,71.96
2018-06-08T06:10:21.830Z,71.98
2018-06-08T06:12:50.939Z,70.94
2018-06-08T06:15:20.046Z,70.45
2018-06-08T06:17:49.164Z,69.74
2018-06-08T06:20:18.547Z,69.59
2018-06-08T06:22:47.344Z,69.17
2018-06-08T06:25:16.451Z,67.47
2018-06-08T06:27:45.740Z,67.30
2018-06-08T06:30:15.159Z,66.18
2018-06-08T06:32:43.991Z,65.62
2018-06-08T06:35:13.006Z,65.37
2018-06-08T06:37:41.977Z,64.56
2018-06-08T06:40:11.733Z,63.55
2018-06-08T06:42:41.925Z,62.87
2018-06-08T06:45:10.787Z,62.88
2018-06-08T06:47:39.885Z,63.57
2018-06-08T06:50:08.777Z,62.14
2018-06-08T06:52:38.252Z,62.92
2018-06-08T06:55:07.715Z,61.86
2018-06-08T06:57:36.544Z,61.84
2018-06-08T07:00:05.519Z,59.66
2018-06-08T07:02:34.626Z,57.45
2018-06-08T07:05:05.144Z,56.91
2018-06-08T07:07:33.969Z,56.55
2018-06-08T07:10:03.301Z,53.91
2018-06-08T07:12:32.895Z,54.74
2018-06-08T07:15:02.037Z,55.91
2018-06-08T07:17:31.169Z,54.61
2018-06-08T07:20:00.448Z,52.00
2018-06-08T07:22:29.982Z,48.06
2018-06-08T07:24:59.772Z,50.10
2018-06-08T07:27:29.252Z,48.38
2018-06-08T07:29:58.122Z,49.04
2018-06-08T07:32:26.976Z,49.05
2018-06-08T07:34:56.299Z,49.73
2018-06-08T07:37:25.176Z,48.58
2018-06-08T07:39:54.733Z,49.00
2018-06-08T07:42:23.885Z,47.17
2018-06-08T07:44:52.710Z,46.71
2018-06-08T07:47:21.578Z,46.68
2018-06-08T07:49:51.060Z,46.64
2018-06-08T07:52:20.147Z,45.41
2018-06-08T07:54:49.320Z,44.24
2018-06-08T07:57:18.155Z,43.89
2018-06-08T07:59:47.277Z,43.88
2018-06-08T08:02:16.281Z,44.38
2018-06-08T08:04:45.126Z,43.92
2018-06-08T08:07:14.224Z,45.92
2018-06-08T08:09:43.207Z,43.77
2018-06-08T08:12:12.379Z,45.55
2018-06-08T08:14:41.258Z,43.72
2018-06-08T08:17:10.382Z,44.06
2018-06-08T08:19:39.925Z,44.26
2018-06-08T08:22:09.402Z,43.51
2018-06-08T08:24:38.479Z,45.12
2018-06-08T08:27:07.661Z,45.33
2018-06-08T08:29:36.488Z,45.40
2018-06-08T08:32:05.560Z,44.05
2018-06-08T08:34:34.826Z,42.20
2018-06-08T08:37:04.198Z,40.98
2018-06-08T08:39:33.016Z,42.22
2018-06-08T08:42:02.275Z,42.27
2018-06-08T08:44:31.054Z,43.57
2018-06-08T08:47:00.453Z,42.93
2018-06-08T08:49:29.822Z,42.75
2018-06-08T08:51:58.691Z,41.36
2018-06-08T08:54:27.626Z,41.48
2018-06-08T08:56:56.978Z,41.64
2018-06-08T08:59:26.138Z,42.85
2018-06-08T09:01:55.267Z,41.45
2018-06-08T09:04:24.517Z,40.10
2018-06-08T09:06:53.374Z,42.08
2018-06-08T09:09:22.397Z,41.16
2018-06-08T09:11:53.822Z,41.88
2018-06-08T09:14:23.330Z,41.64
2018-06-08T09:16:52.823Z,42.51
2018-06-08T09:19:22.190Z,41.53
2018-06-08T09:21:53.049Z,41.57
2018-06-08T09:24:21.835Z,41.33
2018-06-08T09:26:50.556Z,41.58
2018-06-08T09:29:19.738Z,41.90
2018-06-08T09:31:48.755Z,42.80
2018-06-08T09:34:17.596Z,43.10
2018-06-08T09:39:20.827Z,44.54
2018-06-08T09:41:49.987Z,44.28
2018-06-08T09:44:19.100Z,44.29
2018-06-08T09:46:49.157Z,44.03
2018-06-08T09:49:18.406Z,44.37
2018-06-08T09:51:47.736Z,44.69
2018-06-08T09:54:16.858Z,45.72
2018-06-08T09:56:47.156Z,45.34
2018-06-08T09:59:17.043Z,44.11
2018-06-08T10:01:46.114Z,43.56
2018-06-08T10:04:15.195Z,44.00
2018-06-08T10:06:44.520Z,44.33
2018-06-08T10:09:14.217Z,43.81
2018-06-08T10:11:43.828Z,44.51
2018-06-08T10:14:13.458Z,43.64
2018-06-08T10:16:42.685Z,43.85
2018-06-08T10:19:11.627Z,44.50
2018-06-08T10:21:40.547Z,44.30
2018-06-08T10:24:10.053Z,45.17
2018-06-08T10:26:39.070Z,44.64
2018-06-08T10:29:08.558Z,44.39
2018-06-08T10:31:37.389Z,45.19
2018-06-08T10:34:07.072Z,44.36
2018-06-08T10:36:36.231Z,44.97
2018-06-08T10:39:08.029Z,44.75
2018-06-08T10:41:37.041Z,44.17
2018-06-08T10:44:06.327Z,42.80
2018-06-08T10:46:35.585Z,42.47
2018-06-08T10:49:04.470Z,44.53
2018-06-08T10:51:33.710Z,44.90
2018-06-08T10:54:02.917Z,42.46
2018-06-08T10:56:32.137Z,43.85
2018-06-08T10:59:01.471Z,44.28
2018-06-08T11:01:30.363Z,44.53
2018-06-08T11:03:59.864Z,44.88
2018-06-08T11:06:29.056Z,42.36
2018-06-08T11:08:58.253Z,42.54
2018-06-08T11:11:27.190Z,42.21
2018-06-08T11:13:56.155Z,40.74
2018-06-08T11:16:25.393Z,41.70
2018-06-08T11:18:54.951Z,42.55
2018-06-08T11:21:23.907Z,41.49
2018-06-08T11:23:52.827Z,41.18
2018-06-08T11:26:21.771Z,40.67
2018-06-08T11:28:50.563Z,40.56
2018-06-08T11:31:20.630Z,40.63
2018-06-08T11:33:49.904Z,39.38
2018-06-08T11:36:19.767Z,40.50
2018-06-08T11:38:48.708Z,41.16
2018-06-08T11:41:17.563Z,39.93
2018-06-08T11:43:46.565Z,39.75
2018-06-08T11:46:15.782Z,40.65
2018-06-08T11:48:44.683Z,42.16
2018-06-08T11:51:14.125Z,42.51
2018-06-08T11:53:43.704Z,42.49
2018-06-08T11:56:12.759Z,43.31
2018-06-08T11:58:41.666Z,42.73
2018-06-08T12:01:10.873Z,43.88
2018-06-08T12:03:39.888Z,44.50
2018-06-08T12:06:09.119Z,44.57
2018-06-08T12:08:38.370Z,45.69
2018-06-08T12:11:07.563Z,45.30
2018-06-08T12:13:37.071Z,45.08
2018-06-08T12:16:06.510Z,46.49
2018-06-08T12:18:35.752Z,46.17
2018-06-08T12:21:04.680Z,47.40
2018-06-08T12:23:33.865Z,46.04
2018-06-08T12:26:03.162Z,47.32
2018-06-08T12:28:32.086Z,49.15
2018-06-08T12:31:01.686Z,49.03
2018-06-08T12:33:31.372Z,49.54
2018-06-08T12:36:01.177Z,50.01
2018-06-08T12:38:30.344Z,50.09
2018-06-08T12:40:59.542Z,48.49
2018-06-08T12:43:28.597Z,47.13
2018-06-08T12:45:57.770Z,46.96
2018-06-08T12:48:27.215Z,46.59
2018-06-08T12:50:56.945Z,46.87
2018-06-08T12:53:26.221Z,46.62
2018-06-08T12:55:55.335Z,46.75
2018-06-08T13:00:58.327Z,47.10
2018-06-08T13:03:27.961Z,47.95
2018-06-08T13:05:57.100Z,49.88
2018-06-08T13:08:26.142Z,46.43
2018-06-08T13:10:55.150Z,45.47
2018-06-08T13:13:24.709Z,44.64
2018-06-08T13:15:54.309Z,45.59
2018-06-08T13:18:23.409Z,45.20
2018-06-08T13:20:53.217Z,43.86
2018-06-08T13:23:22.529Z,45.38
2018-06-08T13:25:51.984Z,44.85
2018-06-08T13:28:21.164Z,44.77
2018-06-08T13:30:50.635Z,45.40
2018-06-08T13:33:19.596Z,45.53
2018-06-08T13:35:49.069Z,45.96
2018-06-08T13:38:18.199Z,45.09
2018-06-08T13:40:47.197Z,45.82
2018-06-08T13:43:16.419Z,44.96
2018-06-08T13:45:45.354Z,46.06
2018-06-08T13:48:14.257Z,46.22
2018-06-08T13:50:43.394Z,47.67
2018-06-08T13:53:12.766Z,47.53
2018-06-08T13:55:42.782Z,47.17
2018-06-08T13:58:12.212Z,45.14
2018-06-08T14:00:41.230Z,44.84
2018-06-08T14:03:10.354Z,45.28
2018-06-08T14:05:39.328Z,45.52
2018-06-08T14:08:09.232Z,45.93
2018-06-08T14:10:38.427Z,45.52
2018-06-08T14:13:07.508Z,46.78
2018-06-08T14:15:37.652Z,46.07
2018-06-08T14:18:07.142Z,45.77
2018-06-08T14:20:40.287Z,46.04
2018-06-08T14:23:13.605Z,47.03
2018-06-08T14:25:58.648Z,46.24
2018-06-08T14:28:27.828Z,47.73
2018-06-08T14:30:59.631Z,49.25
2018-06-08T14:33:32.299Z,51.25
2018-06-08T14:36:05.863Z,52.46
2018-06-08T14:38:34.969Z,53.45
2018-06-08T14:41:04.512Z,54.01
2018-06-08T14:43:34.152Z,54.24
2018-06-08T14:46:11.892Z,54.99
2018-06-08T14:48:41.057Z,55.98
2018-06-08T14:51:10.402Z,56.98
2018-06-08T14:53:44.822Z,58.56
2018-06-08T14:56:20.268Z,59.29
2018-06-08T14:58:55.317Z,62.39
2018-06-08T15:01:29.930Z,63.18
2018-06-08T15:03:59.882Z,65.38
2018-06-08T15:06:29.255Z,66.28
2018-06-08T15:08:58.534Z,67.60
2018-06-08T15:11:27.795Z,67.62
2018-06-08T15:13:57.478Z,70.03
2018-06-08T15:16:26.942Z,70.06
2018-06-08T15:18:56.312Z,70.82
2018-06-08T15:21:26.282Z,71.87
2018-06-08T15:23:55.979Z,71.98
2018-06-08T15:26:25.495Z,71.14
2018-06-08T15:28:54.639Z,70.22
2018-06-08T15:31:23.593Z,70.34
2018-06-08T15:33:54.275Z,70.80
2018-06-08T15:36:23.222Z,69.98
2018-06-08T15:38:52.079Z,70.30
2018-06-08T15:41:20.934Z,70.68
2018-06-08T15:43:50.378Z,70.62
2018-06-08T15:46:19.221Z,70.89
2018-06-08T15:48:48.153Z,71.44
2018-06-08T15:51:17.199Z,71.88
2018-06-08T15:53:46.254Z,72.29
2018-06-08T15:56:15.544Z,72.27
2018-06-08T15:58:44.534Z,72.32
2018-06-08T16:01:13.938Z,72.60
2018-06-08T16:03:42.714Z,72.99
2018-06-08T16:06:12.409Z,73.83
2018-06-08T16:08:41.238Z,72.79
2018-06-08T16:11:10.683Z,73.37
2018-06-08T16:13:39.570Z,73.88
2018-06-08T16:16:08.645Z,73.13
2018-06-08T16:18:38.002Z,72.54
2018-06-08T16:21:07.175Z,72.66
2018-06-08T16:23:36.293Z,73.22
2018-06-08T16:26:05.602Z,72.27
2018-06-08T16:28:34.404Z,72.65
2018-06-08T16:31:03.164Z,73.32
2018-06-08T16:33:32.555Z,73.48
2018-06-08T16:36:01.374Z,73.12
2018-06-08T16:38:30.221Z,73.50
2018-06-08T16:40:59.047Z,73.43
2018-06-08T16:43:28.257Z,72.81
2018-06-08T16:45:57.054Z,72.73
2018-06-08T16:48:26.124Z,73.20
2018-06-08T16:50:55.245Z,72.04
2018-06-08T16:53:24.017Z,72.43
2018-06-08T16:55:53.351Z,71.65
2018-06-08T16:58:22.514Z,72.53
2018-06-08T17:00:51.744Z,71.96
2018-06-08T17:03:21.204Z,72.07
2018-06-08T17:05:50.413Z,71.31
2018-06-08T17:08:19.213Z,71.35
2018-06-08T17:10:47.986Z,70.90
2018-06-08T17:13:17.378Z,70.75
2018-06-08T17:15:46.170Z,70.60
2018-06-08T17:18:14.975Z,70.76
2018-06-08T17:20:44.159Z,70.48
2018-06-08T17:23:12.950Z,70.48
2018-06-08T17:25:41.992Z,70.70
2018-06-08T17:28:11.339Z,69.60
2018-06-08T17:30:40.381Z,69.65
2018-06-08T17:33:09.719Z,69.56
2018-06-08T17:35:38.961Z,69.80
2018-06-08T17:38:08.332Z,69.16
2018-06-08T17:40:37.403Z,70.21
2018-06-08T17:43:06.720Z,70.47
2018-06-08T17:45:35.829Z,70.15
2018-06-08T17:48:04.944Z,70.07
2018-06-08T17:50:34.113Z,70.45
2018-06-08T17:53:02.917Z,70.75
2018-06-08T17:55:32.753Z,70.98
2018-06-08T17:58:02.338Z,70.85
2018-06-08T18:00:31.652Z,71.24
2018-06-08T18:03:00.823Z,70.88
2018-06-08T18:05:30.622Z,70.80
2018-06-08T18:07:59.784Z,71.23
2018-06-08T18:10:28.703Z,71.25
2018-06-08T18:12:57.549Z,71.74
2018-06-08T18:15:26.369Z,71.00
2018-06-08T18:20:48.793Z,72.03
2018-06-08T18:23:17.680Z,71.56
2018-06-08T18:25:47.136Z,71.53
2018-06-08T18:28:16.355Z,71.72
2018-06-08T18:30:45.762Z,71.63
2018-06-08T18:33:14.675Z,72.20
2018-06-08T18:35:43.534Z,71.48
2018-06-08T18:38:12.413Z,71.97
2018-06-08T18:40:41.234Z,71.56
2018-06-08T18:43:10.325Z,71.31
2018-06-08T18:45:39.195Z,71.28
2018-06-08T18:48:08.333Z,70.79
2018-06-08T18:50:37.772Z,70.91
2018-06-08T18:53:07.492Z,71.17
2018-06-08T18:55:36.372Z,70.57
2018-06-08T18:58:05.533Z,70.83
2018-06-08T19:00:34.650Z,71.09
2018-06-08T19:03:03.584Z,71.42
2018-06-08T19:05:32.438Z,71.55
2018-06-08T19:08:02.095Z,71.82
2018-06-08T19:10:31.351Z,71.84
2018-06-08T19:13:00.911Z,71.29
2018-06-08T19:15:30.040Z,71.89
2018-06-08T19:17:58.960Z,71.44
2018-06-08T19:20:28.285Z,72.18
2018-06-08T19:22:57.191Z,71.96
2018-06-08T19:25:26.486Z,72.24
2018-06-08T19:27:55.841Z,72.50
2018-06-08T19:30:26.462Z,72.29
2018-06-08T19:32:55.423Z,72.68
2018-06-08T19:35:24.580Z,73.02
2018-06-08T19:37:53.929Z,72.53
2018-06-08T19:40:23.585Z,72.60
2018-06-08T19:42:52.938Z,72.21
2018-06-08T19:45:22.391Z,72.87
2018-06-08T19:47:51.252Z,72.71
2018-06-08T19:50:20.238Z,72.98
2018-06-08T19:52:50.175Z,72.36
2018-06-08T19:55:19.438Z,72.97
2018-06-08T19:57:48.379Z,73.27
2018-06-08T20:00:18.053Z,72.97
2018-06-08T20:02:47.611Z,73.32
2018-06-08T20:05:16.604Z,73.04
2018-06-08T20:07:45.917Z,73.30
2018-06-08T20:10:15.236Z,73.72
2018-06-08T20:12:44.353Z,72.95
2018-06-08T20:15:13.864Z,73.29
2018-06-08T20:17:43.956Z,72.77
2018-06-08T20:20:13.439Z,71.39
2018-06-08T20:22:43.038Z,70.29
2018-06-08T20:25:12.007Z,70.59
2018-06-08T20:27:41.403Z,70.48
2018-06-08T20:30:10.970Z,70.42
2018-06-08T20:32:40.441Z,70.00
2018-06-08T20:35:10.993Z,68.65
2018-06-08T20:37:39.960Z,68.45
2018-06-08T20:40:09.181Z,68.53
2018-06-08T20:42:38.385Z,68.48
2018-06-08T20:47:36.437Z,68.23
2018-06-08T20:50:05.476Z,68.70
2018-06-08T20:52:35.222Z,68.52
2018-06-08T20:55:04.204Z,68.08
2018-06-08T20:57:33.760Z,68.63
2018-06-08T21:00:02.691Z,68.87
2018-06-08T21:02:31.665Z,68.50
2018-06-08T21:05:01.342Z,68.34
2018-06-08T21:07:30.455Z,68.14
2018-06-08T21:09:59.345Z,68.64
2018-06-08T21:12:28.752Z,68.16
2018-06-08T21:14:57.903Z,68.83
2018-06-08T21:17:26.775Z,68.04
2018-06-08T21:19:56.160Z,68.66
2018-06-08T21:22:25.234Z,68.30
2018-06-08T21:24:54.326Z,68.66
2018-06-08T21:27:23.996Z,68.65
2018-06-08T21:29:52.802Z,68.80
2018-06-08T21:32:21.981Z,68.24
2018-06-08T21:34:51.221Z,68.25
2018-06-08T21:37:20.278Z,67.65
2018-06-08T21:39:49.948Z,68.05
2018-06-08T21:42:18.792Z,67.92
2018-06-08T21:44:48.427Z,68.25
2018-06-08T21:47:17.836Z,67.89
2018-06-08T21:49:46.927Z,67.62
2018-06-08T21:52:16.293Z,68.63
2018-06-08T21:54:45.564Z,68.12
2018-06-08T21:57:14.571Z,68.60
2018-06-08T21:59:44.448Z,68.64
2018-06-08T22:02:13.610Z,69.15
2018-06-08T22:04:42.437Z,69.85
2018-06-08T22:07:11.685Z,69.49
2018-06-08T22:09:40.926Z,70.03
2018-06-08T22:12:10.620Z,70.43
2018-06-08T22:14:40.428Z,71.02
2018-06-08T22:17:09.234Z,71.65
2018-06-08T22:19:38.166Z,71.89
2018-06-08T22:22:07.163Z,72.61
2018-06-08T22:24:36.641Z,72.94
2018-06-08T22:27:08.162Z,72.96
2018-06-08T22:29:37.614Z,73.36
2018-06-08T22:32:06.811Z,74.22
2018-06-08T22:34:36.329Z,74.11
2018-06-08T22:37:05.201Z,74.29
2018-06-08T22:39:34.101Z,74.83
2018-06-08T22:42:02.920Z,75.00
2018-06-08T22:44:31.687Z,74.87
2018-06-08T22:47:01.118Z,75.02
2018-06-08T22:49:29.911Z,74.59
2018-06-08T22:51:58.725Z,74.69
2018-06-08T22:54:28.077Z,75.40
2018-06-08T22:56:57.535Z,74.87
2018-06-08T22:59:26.894Z,75.18
2018-06-08T23:01:55.740Z,75.50
2018-06-08T23:04:25.433Z,75.40
2018-06-08T23:06:54.677Z,76.40
2018-06-08T23:09:23.797Z,76.15
2018-06-08T23:11:53.019Z,76.62
2018-06-08T23:14:22.391Z,76.54
2018-06-08T23:16:51.724Z,77.13
2018-06-08T23:19:24.597Z,77.44
2018-06-08T23:21:53.436Z,77.71
2018-06-08T23:24:22.970Z,78.09
2018-06-08T23:26:51.991Z,78.44
2018-06-08T23:29:21.230Z,77.77
2018-06-08T23:31:50.799Z,78.04
2018-06-08T23:34:20.240Z,78.05
2018-06-08T23:36:49.313Z,78.55
2018-06-08T23:39:18.621Z,78.59
2018-06-08T23:41:47.468Z,78.74
2018-06-08T23:44:16.274Z,78.62
2018-06-08T23:46:45.176Z,79.04
2018-06-08T23:49:14.368Z,78.35
2018-06-08T23:51:43.213Z,79.05
2018-06-08T23:54:12.085Z,78.62
2018-06-08T23:56:40.903Z,78.72
2018-06-08T23:59:09.749Z,78.65
